Great Barford, United Kingdom
Current Conditions -  °F | °C
As of 5:20 PM on Tuesday 25 Nov 2014 (Local Time) from EGTC Reporting Station
Haze Haze  
Wind Chill: 35°   Ceiling: Unl
Heat Index: 41°   Visibility: 1.5mi
Dew Point: 39°   Wind: 9mph
Humidity: 93%   Direction: 30°NNE
Pressure: 30.09"   Gusts: NA
Location:  52.16°N, 0.35°W
Report Text: EGTC 251720Z 03008KT 2500 BR FEW005 05/04 Q1019
Loading
Personal Weather Stations






























Interactive Weather Map New forecast layout! Learn more

10-Day Weather Forecast

Advertisements
Track Severe Weather on mobile